Time;durP1;ratioP1;P1;durP2;ratioP2;P2;SDS_P1;SDS_P2;PMS_P1;PMS_P2;Temp;Humidity;BMP_temperature;BMP_pressure;BME280_temperature;BME280_humidity;BME280_pressure;Samples;Min_cycle;Max_cycle;Signal;HPM_P1;HPM_P2
2023/04/30 00:02:17;;;;;;;7.97;6.87;;;;;;;10.10;88.86;95859.16;6247559;23;20522;-84
2023/04/30 00:04:42;;;;;;;7.53;6.70;;;;;;;10.19;88.46;95860.13;6246958;23;20544;-83
2023/04/30 00:07:08;;;;;;;8.17;6.87;;;;;;;10.07;89.00;95854.25;6218682;23;20153;-82
2023/04/30 00:09:33;;;;;;;7.93;6.83;;;;;;;10.10;88.66;95853.16;6218453;23;20227;-84
2023/04/30 00:11:58;;;;;;;8.33;6.93;;;;;;;10.14;88.21;95860.50;6219427;23;20173;-85
2023/04/30 00:14:24;;;;;;;8.90;6.90;;;;;;;10.15;88.12;95854.38;6218993;23;20160;-84
2023/04/30 00:16:49;;;;;;;8.17;6.67;;;;;;;10.08;88.49;95857.66;6219023;23;20180;-85
2023/04/30 00:19:14;;;;;;;7.13;6.33;;;;;;;10.11;88.20;95854.78;6244857;23;20259;-84
2023/04/30 00:21:41;;;;;;;9.20;6.10;;;;;;;9.92;88.89;95855.63;6245230;23;20168;-84
2023/04/30 00:24:06;;;;;;;8.20;6.90;;;;;;;10.02;88.20;95858.19;6244871;23;20158;-85
2023/04/30 00:26:31;;;;;;;8.03;6.93;;;;;;;10.05;88.01;95863.09;6244089;23;20161;-83
2023/04/30 00:28:57;;;;;;;9.07;7.03;;;;;;;9.96;88.63;95863.94;6244803;23;20177;-83
2023/04/30 00:31:22;;;;;;;7.63;6.83;;;;;;;9.98;88.67;95869.78;6244959;23;20165;-85
2023/04/30 00:33:47;;;;;;;7.53;6.60;;;;;;;9.89;89.14;95868.84;6245554;23;20154;-84
2023/04/30 00:36:13;;;;;;;8.63;6.80;;;;;;;9.89;88.48;95877.47;6243847;23;20212;-84
2023/04/30 00:38:39;;;;;;;10.00;7.67;;;;;;;9.98;88.32;95881.00;6246361;22;20173;-83
2023/04/30 00:41:04;;;;;;;9.10;7.53;;;;;;;9.91;88.15;95879.91;6245267;23;20152;-85
2023/04/30 00:43:30;;;;;;;9.63;8.13;;;;;;;9.82;88.15;95873.75;6219498;23;20494;-85
2023/04/30 00:45:55;;;;;;;8.63;7.57;;;;;;;9.78;88.31;95874.97;6243528;23;20154;-84
2023/04/30 00:48:21;;;;;;;9.87;7.63;;;;;;;9.79;88.06;95868.81;6219913;23;20232;-84
2023/04/30 00:50:46;;;;;;;10.70;8.10;;;;;;;9.82;88.48;95873.75;6219151;23;20177;-85
2023/04/30 00:53:12;;;;;;;9.00;7.63;;;;;;;9.64;89.90;95865.81;6218986;23;20199;-84
2023/04/30 00:55:39;;;;;;;8.73;7.63;;;;;;;9.76;88.54;95873.47;6270392;22;20216;-84
2023/04/30 00:58:05;;;;;;;8.23;7.33;;;;;;;9.79;88.27;95865.41;6243692;23;20248;-84
2023/04/30 01:00:30;;;;;;;8.80;7.43;;;;;;;9.70;89.06;95871.41;6244963;23;20176;-84
2023/04/30 01:02:56;;;;;;;8.73;7.73;;;;;;;9.88;87.78;95873.19;6243940;23;20160;-84
2023/04/30 01:05:22;;;;;;;9.07;7.40;;;;;;;9.91;87.34;95872.94;6244294;23;20207;-85
2023/04/30 01:07:48;;;;;;;11.03;8.97;;;;;;;9.63;88.85;95873.75;6243595;23;20161;-84
2023/04/30 01:10:14;;;;;;;8.97;8.07;;;;;;;9.78;88.07;95869.78;6242961;23;20611;-83
2023/04/30 01:12:55;;;;;;;11.00;8.00;;;;;;;9.87;88.05;95862.97;6244772;23;20276;-84
2023/04/30 01:15:28;;;;;;;8.77;7.70;;;;;;;9.79;88.33;95862.81;6244702;23;20137;-83
2023/04/30 01:18:11;;;;;;;9.97;7.67;;;;;;;9.84;87.96;95864.06;6243297;22;20173;-83
2023/04/30 01:20:43;;;;;;;8.73;7.67;;;;;;;9.68;88.94;95863.78;6239136;23;20215;-83
2023/04/30 01:23:52;;;;;;;11.90;8.53;;;;;;;9.52;89.60;95853.91;6260602;22;20142;-83
2023/04/30 01:26:36;;;;;;;11.07;8.70;;;;;;;9.61;89.11;95850.50;6244923;23;20244;-84
2023/04/30 01:29:02;;;;;;;9.50;8.43;;;;;;;9.51;89.51;95854.03;6245554;23;20208;-84
2023/04/30 01:31:28;;;;;;;9.03;8.03;;;;;;;9.66;88.72;95852.72;6220211;23;20181;-84
2023/04/30 01:33:53;;;;;;;9.57;8.17;;;;;;;9.59;88.88;95842.06;6246100;23;20623;-82
2023/04/30 01:36:29;;;;;;;11.17;9.17;;;;;;;9.54;89.64;95854.63;6244674;23;20494;-84
2023/04/30 01:39:07;;;;;;;10.73;8.77;;;;;;;9.49;90.08;95850.78;6245022;23;20264;-84
2023/04/30 01:41:40;;;;;;;10.13;8.40;;;;;;;9.67;89.16;95851.75;6245072;23;20157;-83
2023/04/30 01:44:24;;;;;;;10.30;8.37;;;;;;;9.38;90.74;95846.53;6244580;22;20164;-84
2023/04/30 01:47:00;;;;;;;11.63;8.43;;;;;;;9.52;89.94;95847.91;6243510;23;20157;-84
2023/04/30 01:49:33;;;;;;;9.87;8.80;;;;;;;9.62;88.99;95851.34;6243967;23;20185;-85
2023/04/30 01:52:13;;;;;;;9.57;8.57;;;;;;;9.55;89.46;95845.88;6219758;23;20172;-84
2023/04/30 01:54:45;;;;;;;11.03;8.50;;;;;;;9.58;89.52;95852.56;6219364;23;20153;-84
2023/04/30 01:57:16;;;;;;;9.57;8.57;;;;;;;9.55;89.51;95845.88;6243658;23;20897;-84
2023/04/30 01:59:41;;;;;;;13.27;9.33;;;;;;;9.60;89.42;95846.28;6244730;23;20657;-84
2023/04/30 02:02:07;;;;;;;12.43;9.20;;;;;;;9.62;88.84;95846.16;6270004;22;20153;-83
2023/04/30 02:04:32;;;;;;;12.10;9.67;;;;;;;9.56;89.08;95849.28;6243887;23;20501;-84
2023/04/30 02:06:58;;;;;;;10.80;8.90;;;;;;;9.55;89.46;95845.06;6243293;23;20149;-85
2023/04/30 02:09:23;;;;;;;12.63;9.03;;;;;;;9.54;89.52;95839.06;6218124;23;20711;-83
2023/04/30 02:11:49;;;;;;;11.20;9.17;;;;;;;9.49;89.55;95840.41;6242670;23;20188;-82
2023/04/30 02:14:15;;;;;;;10.83;8.60;;;;;;;9.47;90.15;95840.53;6244033;23;20150;-83
2023/04/30 02:16:40;;;;;;;12.17;9.70;;;;;;;9.52;89.18;95840.13;6243188;23;20164;-82
2023/04/30 02:19:11;;;;;;;13.43;10.07;;;;;;;9.58;89.44;95848.19;6243613;23;20509;-87
2023/04/30 02:21:36;;;;;;;12.07;9.53;;;;;;;9.47;89.28;95850.09;6218519;23;20482;-84
2023/04/30 02:24:01;;;;;;;12.70;10.70;;;;;;;9.50;89.44;95853.22;6243426;23;20157;-84
2023/04/30 02:26:27;;;;;;;15.73;10.83;;;;;;;9.42;89.27;95847.06;6242442;23;20153;-82
2023/04/30 02:28:52;;;;;;;14.60;10.93;;;;;;;9.31;89.82;95846.22;6243764;23;20180;-85
2023/04/30 02:31:18;;;;;;;12.87;11.20;;;;;;;9.34;89.14;95843.38;6243271;23;20157;-84
2023/04/30 02:33:43;;;;;;;12.73;10.50;;;;;;;9.26;89.92;95835.44;6218129;23;20164;-83
2023/04/30 02:36:08;;;;;;;13.50;11.30;;;;;;;9.19;90.18;95849.88;6242908;23;20156;-85
2023/04/30 02:38:34;;;;;;;12.10;10.43;;;;;;;9.38;88.95;95849.13;6243140;23;20177;-85
2023/04/30 02:40:59;;;;;;;14.27;10.93;;;;;;;9.43;88.76;95859.06;6243181;23;20153;-85
2023/04/30 02:43:24;;;;;;;14.10;11.33;;;;;;;9.40;88.75;95849.81;6243271;23;20769;-85
2023/04/30 02:45:50;;;;;;;13.37;9.93;;;;;;;9.43;88.21;95852.13;6242588;23;20164;-84
2023/04/30 02:48:15;;;;;;;14.23;10.77;;;;;;;9.45;88.55;95851.97;6243265;23;20180;-85
2023/04/30 02:50:40;;;;;;;14.90;11.90;;;;;;;9.35;89.25;95845.00;6243334;23;20234;-85
2023/04/30 02:53:06;;;;;;;13.40;11.37;;;;;;;9.42;89.47;95849.66;6217184;23;20263;-83
2023/04/30 02:55:31;;;;;;;11.83;10.57;;;;;;;9.41;88.45;95853.22;6218100;23;20241;-83
2023/04/30 02:57:57;;;;;;;14.40;10.90;;;;;;;9.29;89.23;95845.56;6217731;23;20560;-84
2023/04/30 03:00:22;;;;;;;13.00;11.13;;;;;;;9.28;89.82;95856.06;6243766;23;20216;-84
2023/04/30 03:02:47;;;;;;;16.53;11.97;;;;;;;9.27;89.92;95855.19;6245358;22;20146;-85
2023/04/30 03:05:13;;;;;;;16.03;11.30;;;;;;;9.25;89.97;95853.69;6268327;22;20505;-85
2023/04/30 03:07:39;;;;;;;13.23;10.73;;;;;;;9.27;89.86;95847.44;6241861;23;20224;-85
2023/04/30 03:10:05;;;;;;;12.43;11.13;;;;;;;9.31;89.77;95848.00;6241507;23;20162;-85
2023/04/30 03:12:30;;;;;;;14.63;11.33;;;;;;;9.24;89.88;95839.94;6245006;22;20188;-85
2023/04/30 03:14:55;;;;;;;16.30;12.30;;;;;;;9.24;89.75;95839.94;6244715;23;20656;-84
2023/04/30 03:17:22;;;;;;;13.90;11.67;;;;;;;9.14;90.16;95838.28;6244048;23;20176;-83
2023/04/30 03:19:47;;;;;;;15.20;12.57;;;;;;;9.04;91.01;95835.66;6245401;23;20570;-84
2023/04/30 03:22:13;;;;;;;12.43;11.13;;;;;;;9.17;90.54;95836.22;6245448;23;20153;-85
2023/04/30 03:24:38;;;;;;;14.23;11.37;;;;;;;9.13;90.66;95834.03;6244733;23;20157;-84
2023/04/30 03:27:03;;;;;;;13.97;11.87;;;;;;;9.09;90.34;95836.06;6246234;22;20158;-85
2023/04/30 03:29:28;;;;;;;15.77;11.77;;;;;;;9.14;89.62;95833.91;6244525;23;20181;-83
2023/04/30 03:31:54;;;;;;;15.00;11.30;;;;;;;9.13;90.48;95840.03;6244505;23;20184;-84
2023/04/30 03:34:19;;;;;;;14.20;11.83;;;;;;;9.12;90.59;95841.00;6244739;23;20157;-82
2023/04/30 03:36:45;;;;;;;14.00;11.63;;;;;;;9.06;91.18;95831.97;6245003;22;20205;-84
2023/04/30 03:39:10;;;;;;;14.27;11.03;;;;;;;9.11;90.85;95834.19;6244052;23;20696;-84
2023/04/30 03:41:35;;;;;;;13.80;11.37;;;;;;;9.03;90.83;95832.25;6243761;23;20666;-83
2023/04/30 03:44:01;;;;;;;14.20;11.30;;;;;;;9.12;90.97;95835.00;6218409;23;20153;-83
2023/04/30 03:46:26;;;;;;;15.30;11.93;;;;;;;9.05;90.97;95839.88;6242481;23;20184;-83
2023/04/30 03:48:52;;;;;;;15.57;11.63;;;;;;;9.07;90.84;95836.19;6217995;23;20260;-84
2023/04/30 03:51:19;;;;;;;14.07;11.33;;;;;;;9.09;91.28;95830.88;6243763;23;20149;-84
2023/04/30 03:53:45;;;;;;;13.20;11.50;;;;;;;9.15;90.81;95835.53;6244644;23;20575;-83
2023/04/30 03:56:10;;;;;;;16.60;12.03;;;;;;;9.08;90.56;95837.00;6243847;23;20168;-83
2023/04/30 03:58:35;;;;;;;15.33;12.03;;;;;;;9.08;91.05;95837.00;6247583;23;20219;-83
2023/04/30 04:01:01;;;;;;;14.37;11.40;;;;;;;9.04;90.76;95839.06;6270521;22;20164;-83
2023/04/30 04:03:26;;;;;;;15.97;11.83;;;;;;;9.05;90.96;95834.69;6254035;23;20524;-84
2023/04/30 04:05:51;;;;;;;16.10;11.90;;;;;;;9.03;91.07;95840.00;6246030;23;20180;-84
2023/04/30 04:08:17;;;;;;;14.97;12.33;;;;;;;9.01;90.80;95834.16;6249298;23;20642;-82
2023/04/30 04:10:42;;;;;;;14.60;12.47;;;;;;;8.90;91.14;95834.22;6245535;23;20177;-84
2023/04/30 04:13:08;;;;;;;16.00;13.00;;;;;;;9.01;90.87;95835.88;6247620;23;20509;-84
2023/04/30 04:15:33;;;;;;;15.60;12.67;;;;;;;8.95;91.31;95828.66;6246432;23;20161;-83
2023/04/30 04:17:59;;;;;;;16.77;12.07;;;;;;;8.96;91.27;95838.06;6250646;22;20207;-85
2023/04/30 04:20:24;;;;;;;19.43;13.43;;;;;;;8.87;90.84;95837.06;6251778;22;20218;-83
2023/04/30 04:22:49;;;;;;;16.03;12.67;;;;;;;8.96;91.40;95840.66;6251066;22;20240;-85
2023/04/30 04:25:16;;;;;;;14.90;13.03;;;;;;;8.92;90.90;95842.69;6250901;22;20148;-84
2023/04/30 04:27:42;;;;;;;16.80;13.23;;;;;;;8.89;91.10;95842.13;6250729;22;20160;-84
2023/04/30 04:30:08;;;;;;;17.07;13.20;;;;;;;8.91;91.41;95842.81;6226250;22;20153;-83
2023/04/30 04:32:40;;;;;;;14.23;12.73;;;;;;;9.01;90.63;95849.69;6225779;22;20184;-84
2023/04/30 04:35:06;;;;;;;16.67;13.70;;;;;;;9.04;89.98;95843.41;6227954;22;20148;-83
2023/04/30 04:37:32;;;;;;;18.87;13.73;;;;;;;9.12;89.62;95850.53;6278524;22;20700;-84
2023/04/30 04:39:57;;;;;;;16.10;13.33;;;;;;;9.12;89.70;95850.53;6278672;22;20171;-83
2023/04/30 04:42:22;;;;;;;19.77;14.00;;;;;;;9.12;89.91;95851.34;6250643;22;20195;-83
2023/04/30 04:44:47;;;;;;;17.47;13.93;;;;;;;9.19;89.25;95856.81;6250037;22;20165;-82
2023/04/30 04:47:18;;;;;;;14.60;13.10;;;;;;;9.20;89.27;95851.53;6249059;22;20207;-82
2023/04/30 04:49:43;;;;;;;14.97;12.43;;;;;;;9.34;88.74;95850.31;6277464;22;20230;-84
2023/04/30 04:52:09;;;;;;;15.93;14.23;;;;;;;9.30;88.65;95856.75;6224202;22;20176;-83
2023/04/30 04:54:34;;;;;;;16.27;13.10;;;;;;;9.41;88.04;95854.03;6250100;22;20163;-83
2023/04/30 04:57:00;;;;;;;17.87;13.93;;;;;;;9.49;87.58;95858.56;6249311;22;20156;-83
2023/04/30 04:59:25;;;;;;;16.97;13.40;;;;;;;9.61;87.04;95860.88;6249134;22;20181;-82
2023/04/30 05:01:50;;;;;;;16.27;12.67;;;;;;;9.74;86.27;95865.00;6249820;22;20159;-82
2023/04/30 05:04:16;;;;;;;14.13;12.63;;;;;;;9.78;85.49;95853.41;6249588;22;20184;-82
2023/04/30 05:06:41;;;;;;;14.63;12.47;;;;;;;9.90;85.19;95860.94;6248023;22;20160;-84
2023/04/30 05:09:08;;;;;;;16.37;14.33;;;;;;;10.02;84.19;95858.19;6248765;22;20172;-83
2023/04/30 05:11:33;;;;;;;18.13;13.33;;;;;;;10.06;83.96;95862.16;6273696;22;20157;-84
2023/04/30 05:13:59;;;;;;;14.73;13.23;;;;;;;10.01;83.78;95854.78;6248657;22;20148;-82
2023/04/30 05:16:25;;;;;;;15.63;13.20;;;;;;;10.00;83.47;95853.16;6240253;23;20177;-83
2023/04/30 05:18:51;;;;;;;17.33;13.20;;;;;;;9.92;83.31;95861.63;6218542;23;20674;-82
2023/04/30 05:21:16;;;;;;;15.63;13.23;;;;;;;9.80;84.28;95852.31;6218253;23;20153;-83
2023/04/30 05:23:41;;;;;;;15.47;13.17;;;;;;;9.88;84.47;95859.41;6217996;23;20636;-84
2023/04/30 05:26:07;;;;;;;15.13;12.43;;;;;;;10.01;83.66;95861.75;6217395;23;20165;-83
2023/04/30 05:28:32;;;;;;;14.47;12.90;;;;;;;10.09;82.28;95865.31;6217495;23;20267;-84
2023/04/30 05:30:58;;;;;;;15.83;12.47;;;;;;;10.31;81.37;95864.22;6218025;23;20211;-82
2023/04/30 05:33:23;;;;;;;15.93;12.80;;;;;;;10.36;81.48;95853.44;6192905;23;20577;-82
2023/04/30 05:35:48;;;;;;;13.20;11.03;;;;;;;10.72;80.09;95857.06;6216932;23;20157;-83
2023/04/30 05:38:14;;;;;;;14.70;11.57;;;;;;;10.85;78.72;95857.56;6218826;23;20922;-84
2023/04/30 05:40:39;;;;;;;15.13;12.33;;;;;;;10.85;78.19;95857.56;6220107;23;20231;-83
2023/04/30 05:43:05;;;;;;;14.57;12.07;;;;;;;11.07;77.84;95862.41;6194307;23;20153;-84
2023/04/30 05:45:30;;;;;;;15.63;12.80;;;;;;;10.86;79.09;95858.38;6218951;23;20164;-83
2023/04/30 05:47:55;;;;;;;13.10;11.63;;;;;;;10.88;78.76;95854.69;6217441;23;20188;-83
2023/04/30 05:50:22;;;;;;;13.23;11.17;;;;;;;10.73;78.72;95856.91;6193215;23;20142;-83
2023/04/30 05:52:47;;;;;;;12.87;11.47;;;;;;;10.51;80.75;95862.41;6243377;23;20510;-83
2023/04/30 05:55:14;;;;;;;13.53;12.10;;;;;;;10.56;80.53;95857.63;6217953;23;20156;-82
2023/04/30 05:57:39;;;;;;;12.40;11.17;;;;;;;10.45;80.95;95857.81;6216961;23;20231;-83
2023/04/30 06:00:05;;;;;;;13.73;12.23;;;;;;;10.70;80.30;95869.38;6218579;23;20506;-82
2023/04/30 06:02:31;;;;;;;13.10;11.40;;;;;;;10.79;80.42;95873.72;6218108;23;20146;-83
2023/04/30 06:04:56;;;;;;;13.77;11.77;;;;;;;10.91;79.46;95862.19;6192912;23;20176;-83
2023/04/30 06:07:22;;;;;;;14.27;11.70;;;;;;;11.00;78.84;95863.94;6217354;23;20595;-81
2023/04/30 06:09:47;;;;;;;14.47;12.00;;;;;;;11.32;78.25;95873.94;6216165;23;20631;-84
2023/04/30 06:12:12;;;;;;;14.40;11.70;;;;;;;11.25;77.98;95877.25;6213325;23;20579;-82
2023/04/30 06:14:38;;;;;;;14.67;12.03;;;;;;;11.62;76.95;95870.22;6215352;23;20164;-84
2023/04/30 06:17:03;;;;;;;14.23;11.70;;;;;;;11.62;76.47;95865.00;6200281;23;20183;-83
2023/04/30 06:19:29;;;;;;;13.70;12.10;;;;;;;11.55;76.92;95876.97;6217761;23;20169;-83
2023/04/30 06:21:54;;;;;;;14.50;12.17;;;;;;;11.41;77.13;95874.03;6217939;23;20149;-84
2023/04/30 06:24:19;;;;;;;14.20;11.27;;;;;;;11.39;77.26;95873.34;6243308;23;20199;-83
2023/04/30 06:26:45;;;;;;;13.13;11.73;;;;;;;11.39;77.58;95868.97;6216934;23;20164;-83
2023/04/30 06:29:10;;;;;;;12.93;11.60;;;;;;;11.52;76.41;95874.66;6217112;23;20181;-84
2023/04/30 06:31:35;;;;;;;14.00;12.43;;;;;;;11.71;76.01;95876.31;6217575;23;20157;-83
2023/04/30 06:34:01;;;;;;;13.07;11.53;;;;;;;11.71;75.20;95876.31;6217800;23;20157;-83
2023/04/30 06:36:26;;;;;;;13.47;11.87;;;;;;;11.71;74.99;95870.31;6217119;23;20165;-83
2023/04/30 06:38:51;;;;;;;13.43;12.03;;;;;;;11.99;73.83;95863.28;6218051;23;20173;-83
2023/04/30 06:41:17;;;;;;;11.87;10.67;;;;;;;12.56;71.25;95863.78;6237752;22;20147;-84
2023/04/30 06:43:48;;;;;;;12.43;11.10;;;;;;;12.82;69.67;95864.59;6244494;23;20169;-82
2023/04/30 06:46:16;;;;;;;12.43;11.13;;;;;;;13.12;69.33;95867.69;6229134;23;20172;-84
2023/04/30 06:48:42;;;;;;;12.30;11.10;;;;;;;12.90;68.49;95866.44;6222274;23;20626;-85
2023/04/30 06:51:07;;;;;;;13.00;11.70;;;;;;;13.39;67.68;95870.13;6222933;23;20195;-85
2023/04/30 06:53:36;;;;;;;13.43;10.50;;;;;;;13.41;67.42;95877.78;6223130;23;20264;-84
2023/04/30 06:56:03;;;;;;;11.77;10.57;;;;;;;12.90;68.31;95872.47;6223072;23;20177;-83
2023/04/30 06:58:28;;;;;;;12.77;11.47;;;;;;;13.58;66.79;95880.31;6222897;23;20172;-85
2023/04/30 07:00:53;;;;;;;12.60;10.90;;;;;;;13.37;66.25;95868.66;6223549;23;20474;-84
2023/04/30 07:03:18;;;;;;;13.97;10.57;;;;;;;13.18;66.83;95873.13;6222935;23;20157;-84
2023/04/30 07:06:17;;;;;;;14.43;11.00;;;;;;;14.00;64.39;95869.00;6222734;23;20201;-86
2023/04/30 07:13:52;;;;;;;12.40;11.10;;;;;;;13.85;64.05;95868.81;6233614;22;20299;-83
2023/04/30 07:16:18;;;;;;;11.80;10.23;;;;;;;13.88;62.28;95878.13;6195900;23;20158;-81
2023/04/30 07:18:43;;;;;;;12.50;11.07;;;;;;;13.88;62.79;95878.13;6219956;23;20830;-80
2023/04/30 07:21:09;;;;;;;11.57;10.43;;;;;;;13.22;63.78;95876.25;6195381;23;20752;-80
2023/04/30 07:23:34;;;;;;;14.60;10.63;;;;;;;13.39;64.11;95879.75;6195319;23;20212;-79
2023/04/30 07:25:59;;;;;;;13.43;10.50;;;;;;;13.14;65.33;95876.19;6193999;23;20160;-79
2023/04/30 07:28:25;;;;;;;12.00;10.10;;;;;;;13.02;64.85;95867.81;6220550;23;20711;-81
2023/04/30 07:30:51;;;;;;;11.97;10.77;;;;;;;13.13;65.72;95870.16;6214288;23;20153;-81
2023/04/30 07:33:17;;;;;;;13.50;9.87;;;;;;;13.07;65.62;95854.28;6217540;23;20173;-81
2023/04/30 07:35:42;;;;;;;10.93;9.83;;;;;;;13.15;65.10;95864.78;6192896;23;20165;-80
2023/04/30 07:38:07;;;;;;;13.43;10.53;;;;;;;12.45;65.98;95870.03;6218605;23;20177;-82
2023/04/30 07:40:33;;;;;;;11.40;10.20;;;;;;;12.79;66.67;95862.28;6194453;23;20493;-80
2023/04/30 07:42:58;;;;;;;13.20;11.50;;;;;;;12.10;66.79;95863.06;6219166;23;20149;-81
2023/04/30 07:45:23;;;;;;;14.40;10.23;;;;;;;12.52;67.10;95857.22;6218561;23;20504;-81
2023/04/30 07:47:49;;;;;;;11.40;10.20;;;;;;;12.60;66.06;95860.69;6217813;23;20696;-81
2023/04/30 07:50:14;;;;;;;13.23;10.83;;;;;;;12.64;65.82;95856.03;6219838;23;20162;-81
2023/04/30 07:52:40;;;;;;;12.43;10.10;;;;;;;12.33;66.50;95859.03;6219617;23;20263;-81
2023/04/30 07:55:06;;;;;;;11.17;9.93;;;;;;;12.43;65.15;95858.94;6217853;23;20165;-83
2023/04/30 07:57:31;;;;;;;11.27;10.07;;;;;;;12.87;64.64;95854.53;6192878;23;20607;-82
2023/04/30 07:59:57;;;;;;;12.50;10.37;;;;;;;12.84;64.92;95867.06;6193830;23;20266;-83
2023/04/30 08:02:22;;;;;;;10.30;9.30;;;;;;;13.57;64.51;95863.03;6219100;23;20157;-82
2023/04/30 08:04:50;;;;;;;12.80;9.80;;;;;;;13.24;62.54;95862.06;6219497;23;20188;-81
2023/04/30 08:07:21;;;;;;;9.93;8.90;;;;;;;13.51;62.35;95873.28;6194688;23;20168;-82
2023/04/30 08:09:46;;;;;;;10.73;9.63;;;;;;;13.68;61.96;95864.53;6194187;23;20266;-82
2023/04/30 08:12:11;;;;;;;10.53;9.43;;;;;;;13.52;60.64;95869.72;6217990;23;20487;-81
2023/04/30 08:14:38;;;;;;;10.60;9.60;;;;;;;13.57;60.77;95868.25;6245608;23;20150;-84
2023/04/30 08:17:03;;;;;;;10.27;9.17;;;;;;;14.07;60.30;95864.78;6219956;23;20156;-82
2023/04/30 08:19:28;;;;;;;9.57;8.67;;;;;;;13.72;60.08;95875.47;6220309;23;20181;-82
2023/04/30 08:21:54;;;;;;;10.30;9.20;;;;;;;13.53;60.56;95871.34;6244921;23;20157;-84
2023/04/30 08:24:19;;;;;;;9.60;8.40;;;;;;;14.07;58.37;95871.81;6220488;23;20161;-80
2023/04/30 08:26:44;;;;;;;8.40;7.60;;;;;;;14.65;58.93;95871.66;6244701;23;20156;-81
2023/04/30 08:29:10;;;;;;;9.47;7.90;;;;;;;14.76;56.84;95875.78;6219121;23;20188;-81
2023/04/30 08:31:35;;;;;;;7.97;7.17;;;;;;;14.84;56.27;95878.38;6218864;23;20161;-83
2023/04/30 08:34:00;;;;;;;8.13;7.27;;;;;;;15.26;54.21;95877.28;6247065;23;20165;-81
2023/04/30 08:36:26;;;;;;;8.67;7.77;;;;;;;14.88;55.69;95877.03;6217805;23;20193;-82
2023/04/30 08:38:52;;;;;;;7.37;6.63;;;;;;;14.75;53.75;95874.09;6219794;23;20533;-81
2023/04/30 08:41:22;;;;;;;9.50;7.27;;;;;;;14.75;53.40;95879.34;6242945;23;20163;-80
2023/04/30 08:43:51;;;;;;;8.43;6.47;;;;;;;14.60;54.11;95875.78;6243687;22;20145;-80
2023/04/30 08:46:17;;;;;;;8.57;6.83;;;;;;;15.07;53.33;95875.88;6244214;23;20153;-81
2023/04/30 08:48:43;;;;;;;7.70;6.90;;;;;;;15.27;53.23;95868.44;6244847;23;20180;-82
2023/04/30 08:51:08;;;;;;;8.00;7.20;;;;;;;14.60;53.35;95888.84;6246727;23;20594;-83
2023/04/30 08:53:36;;;;;;;8.70;6.87;;;;;;;14.39;53.64;95876.22;6225915;23;20231;-82
2023/04/30 08:56:02;;;;;;;7.83;7.03;;;;;;;13.88;55.19;95878.94;6251088;22;20244;-82
2023/04/30 08:58:27;;;;;;;6.73;6.13;;;;;;;14.20;54.28;95874.75;6253910;22;20211;-82
2023/04/30 09:00:53;;;;;;;7.50;5.70;;;;;;;14.35;53.99;95875.75;6226507;23;20187;-82
2023/04/30 09:03:20;;;;;;;6.97;5.80;;;;;;;14.15;52.34;95874.44;6224618;23;20164;-81
2023/04/30 09:05:46;;;;;;;6.03;5.53;;;;;;;14.24;51.61;95859.59;6247879;22;20161;-83
2023/04/30 09:08:16;;;;;;;6.40;5.53;;;;;;;14.36;51.81;95871.34;6255649;23;20196;-83
2023/04/30 09:10:42;;;;;;;5.43;4.93;;;;;;;14.55;50.87;95884.09;6259465;23;20146;-84
2023/04/30 09:13:08;;;;;;;5.60;4.93;;;;;;;14.55;50.49;95873.63;6225948;23;20189;-82
2023/04/30 09:15:35;;;;;;;6.00;4.97;;;;;;;14.38;51.79;95878.00;6252891;23;20168;-83
2023/04/30 09:18:07;;;;;;;6.73;6.13;;;;;;;14.49;50.86;95876.09;6251537;23;20180;-83
2023/04/30 09:20:33;;;;;;;6.27;5.67;;;;;;;14.64;51.70;95871.84;6254089;23;20180;-82
2023/04/30 09:23:09;;;;;;;6.83;5.40;;;;;;;14.77;51.43;95873.97;6226939;23;20153;-82
2023/04/30 09:25:40;;;;;;;5.17;4.67;;;;;;;14.55;51.76;95878.88;6228353;23;20233;-82
2023/04/30 09:28:12;;;;;;;5.87;4.90;;;;;;;14.75;51.95;95871.50;6251447;23;20173;-82
2023/04/30 09:30:38;;;;;;;6.70;4.93;;;;;;;14.91;51.11;95879.31;6251056;23;20189;-82
2023/04/30 09:33:03;;;;;;;5.90;5.30;;;;;;;14.71;50.59;95878.03;6225392;23;20949;-82
2023/04/30 09:35:34;;;;;;;5.40;4.70;;;;;;;14.34;52.02;95881.94;6250883;23;20157;-82
2023/04/30 09:38:03;;;;;;;6.20;4.63;;;;;;;14.47;53.30;95875.44;6249025;23;20173;-81
2023/04/30 09:40:38;;;;;;;5.47;4.60;;;;;;;14.60;51.09;95881.81;6254677;22;20161;-82
2023/04/30 09:43:03;;;;;;;5.60;4.20;;;;;;;14.81;50.26;95883.09;6224618;23;20153;-81
2023/04/30 09:45:39;;;;;;;5.00;4.50;;;;;;;14.91;50.21;95884.56;6250909;23;20215;-84
2023/04/30 09:48:05;;;;;;;5.33;4.67;;;;;;;14.77;49.64;95877.41;6250588;23;20526;-82
2023/04/30 09:50:37;;;;;;;5.53;4.67;;;;;;;14.34;50.45;95874.13;6225490;23;20158;-81
2023/04/30 09:53:07;;;;;;;5.67;4.20;;;;;;;14.82;51.42;95879.50;6250780;22;20165;-82
2023/04/30 09:55:34;;;;;;;4.70;4.30;;;;;;;14.94;50.63;95879.00;6251115;23;20187;-82
2023/04/30 09:58:02;;;;;;;5.57;4.73;;;;;;;14.84;48.97;95886.22;6249393;23;20177;-81
2023/04/30 10:00:29;;;;;;;4.70;4.30;;;;;;;14.90;49.92;95882.09;6223483;23;20626;-81
2023/04/30 10:02:54;;;;;;;4.80;4.40;;;;;;;14.91;49.78;95879.31;6219788;23;20164;-82
2023/04/30 10:05:20;;;;;;;4.90;4.40;;;;;;;14.95;49.29;95877.22;6243714;23;20153;-81
2023/04/30 10:07:45;;;;;;;4.47;4.03;;;;;;;14.97;48.81;95881.28;6217266;23;20465;-82
2023/04/30 10:10:11;;;;;;;5.57;3.97;;;;;;;15.02;48.80;95879.00;6243567;23;20158;-82
2023/04/30 10:12:46;;;;;;;5.27;3.80;;;;;;;15.27;48.06;95886.75;6243480;23;20185;-82
2023/04/30 10:15:16;;;;;;;3.70;3.37;;;;;;;15.29;48.95;95880.41;6243259;23;20191;-82
2023/04/30 10:17:44;;;;;;;4.50;4.10;;;;;;;14.87;48.17;95880.66;6242381;23;20157;-81
2023/04/30 10:20:11;;;;;;;4.73;4.27;;;;;;;14.47;48.47;95875.44;6243570;23;20240;-81
2023/04/30 10:22:36;;;;;;;6.30;4.90;;;;;;;14.22;49.12;95878.00;6217207;23;20153;-81
2023/04/30 10:25:02;;;;;;;5.13;4.03;;;;;;;14.79;48.92;95875.44;6244172;23;20155;-82
2023/04/30 10:27:32;;;;;;;5.27;4.20;;;;;;;15.08;46.94;95879.28;6243500;23;20153;-82
2023/04/30 10:29:58;;;;;;;5.07;3.67;;;;;;;15.31;46.78;95872.38;6244928;23;20195;-81
2023/04/30 10:32:28;;;;;;;4.07;3.57;;;;;;;15.33;47.08;95872.19;6218412;23;20195;-79
2023/04/30 10:35:10;;;;;;;5.27;4.53;;;;;;;15.53;45.84;95869.00;6242735;23;20177;-81
2023/04/30 10:37:56;;;;;;;6.00;3.73;;;;;;;15.51;46.30;95857.88;6242937;23;20196;-80
2023/04/30 10:40:21;;;;;;;5.33;4.20;;;;;;;15.51;47.11;95864.94;6243551;23;20180;-80
2023/04/30 10:42:48;;;;;;;6.23;3.97;;;;;;;15.20;46.55;95860.47;6244679;23;20582;-81
2023/04/30 10:45:16;;;;;;;4.63;4.23;;;;;;;14.87;46.41;95857.13;6241648;23;20202;-82
2023/04/30 10:47:44;;;;;;;4.43;4.03;;;;;;;14.83;45.99;95847.97;6239995;23;20165;-80
2023/04/30 10:50:10;;;;;;;5.07;4.03;;;;;;;14.80;46.52;95850.91;6241321;23;20153;-79
2023/04/30 10:52:36;;;;;;;4.27;3.87;;;;;;;14.80;47.42;95850.91;6243100;22;20635;-79
2023/04/30 10:55:09;;;;;;;4.87;3.67;;;;;;;14.86;47.10;95850.25;6242091;23;20542;-80
2023/04/30 10:57:42;;;;;;;4.10;3.80;;;;;;;15.25;46.41;95846.88;6243224;23;20243;-83
2023/04/30 11:00:07;;;;;;;4.20;3.90;;;;;;;15.27;45.14;95845.72;6219504;23;20161;-82
2023/04/30 11:02:45;;;;;;;4.97;4.20;;;;;;;15.37;44.54;95836.84;6244423;23;20196;-84
2023/04/30 11:05:16;;;;;;;5.77;4.33;;;;;;;16.07;44.79;95848.09;6239884;23;20168;-84
2023/04/30 11:07:57;;;;;;;4.03;3.63;;;;;;;15.77;43.67;95823.59;6243711;22;20161;-82
2023/04/30 11:10:25;;;;;;;3.87;3.53;;;;;;;16.45;43.76;95827.22;6244983;23;20153;-83
2023/04/30 11:12:53;;;;;;;5.03;3.90;;;;;;;15.98;43.48;95825.56;6244779;22;20200;-84
2023/04/30 11:15:25;;;;;;;5.73;3.60;;;;;;;16.58;43.76;95818.72;6244043;23;20162;-83
2023/04/30 11:17:55;;;;;;;4.53;3.40;;;;;;;16.68;42.52;95820.13;6244629;23;20501;-84
2023/04/30 11:20:25;;;;;;;3.73;3.43;;;;;;;16.51;43.26;95817.81;6246607;22;20138;-83
2023/04/30 11:23:16;;;;;;;4.73;3.40;;;;;;;16.58;43.10;95819.53;6245818;22;20198;-83
2023/04/30 11:25:43;;;;;;;3.60;3.30;;;;;;;16.34;43.16;95831.06;6245384;22;20172;-83
2023/04/30 11:28:34;;;;;;;3.80;3.47;;;;;;;16.18;43.60;95823.34;6243986;23;20170;-85
2023/04/30 11:31:00;;;;;;;3.53;3.23;;;;;;;15.95;44.31;95825.94;6244863;23;20146;-85
2023/04/30 11:33:26;;;;;;;4.33;3.60;;;;;;;16.38;43.53;95815.78;6218462;23;20177;-85
2023/04/30 11:35:54;;;;;;;3.72;3.40;;;;;;;16.43;43.03;95821.31;6244262;22;20953;-84